Time;durP1;ratioP1;P1;durP2;ratioP2;P2;SDS_P1;SDS_P2;PMS_P1;PMS_P2;Temp;Humidity;BMP_temperature;BMP_pressure;BME280_temperature;BME280_humidity;BME280_pressure;Samples;Min_cycle;Max_cycle;Signal;HPM_P1;HPM_P2
2023/01/05 00:00:19;;;;;;;;;0.00;0.00;;;;;14.91;72.21;102281.34;2008682;28;2731595;-83
2023/01/05 00:01:32;;;;;;;;;0.00;0.00;;;;;14.92;72.11;102282.19;1993669;28;2725289;-83
2023/01/05 00:02:45;;;;;;;;;0.83;0.00;;;;;14.93;72.29;102281.28;2009385;28;2733608;-83
2023/01/05 00:03:59;;;;;;;;;0.83;0.00;;;;;14.93;72.15;102279.53;1985678;28;2725286;-83
2023/01/05 00:05:12;;;;;;;;;0.00;0.00;;;;;14.93;71.84;102279.53;2010922;28;2723179;-83
2023/01/05 00:06:25;;;;;;;;;0.00;0.00;;;;;14.95;72.29;102283.00;1992735;28;2725369;-83
2023/01/05 00:07:38;;;;;;;;;0.00;0.00;;;;;14.96;72.16;102282.06;2013823;28;2727384;-83
2023/01/05 00:08:52;;;;;;;;;0.00;0.00;;;;;14.97;72.14;102280.28;2014781;28;2733627;-83
2023/01/05 00:22:29;;;;;;;;;0.33;0.00;;;;;14.99;72.18;102281.09;2000609;28;2724252;-83
2023/01/05 00:22:34;;;;;;;;;0.00;0.00;;;;;14.98;72.27;102287.34;1998668;28;2725331;-83
2023/01/05 00:23:47;;;;;;;;;0.00;0.00;;;;;14.97;72.24;102282.94;1979806;28;2711733;-83
2023/01/05 00:25:05;;;;;;;;;0.00;0.00;;;;;14.97;72.31;102282.94;2013319;28;2733586;-83
2023/01/05 00:26:18;;;;;;;;;1.00;0.00;;;;;14.96;72.47;102274.13;1992511;28;2725267;-83
2023/01/05 00:27:32;;;;;;;;;0.00;0.00;;;;;14.96;72.23;102284.72;1999966;28;2725290;-84
2023/01/05 00:28:45;;;;;;;;;0.00;0.00;;;;;14.96;72.28;102284.72;2020997;28;2727374;-84
2023/01/05 00:29:59;;;;;;;;;0.00;0.00;;;;;14.95;72.23;102288.28;1992598;28;2733639;-83
2023/01/05 00:31:12;;;;;;;;;0.00;0.00;;;;;14.94;72.46;102280.38;1993813;28;2712751;-83
2023/01/05 00:32:27;;;;;;;;;0.00;0.00;;;;;14.93;72.36;102281.28;2015007;28;2729448;-83
2023/01/05 00:33:40;;;;;;;;;0.00;0.00;;;;;14.93;72.27;102278.63;1991690;28;2733600;-84
2023/01/05 00:34:58;;;;;;;;;1.50;0.00;;;;;14.93;72.37;102281.28;1992124;28;2731612;-83
2023/01/05 00:36:11;;;;;;;;;0.00;0.00;;;;;14.92;72.41;102282.19;1992464;28;2714839;-84
2023/01/05 00:37:26;;;;;;;;;0.00;0.00;;;;;14.90;72.38;102276.06;2008390;28;2721128;-83
2023/01/05 00:38:39;;;;;;;;;0.67;0.00;;;;;14.89;72.53;102274.34;1987022;28;2726838;-83
2023/01/05 00:39:53;;;;;;;;;0.00;0.00;;;;;14.90;72.59;102279.59;2014453;28;2725281;-84
2023/01/05 00:41:06;;;;;;;;;0.00;0.00;;;;;14.89;72.51;102277.00;1992225;28;2733627;-83
2023/01/05 00:42:19;;;;;;;;;0.00;0.00;;;;;14.88;72.38;102278.78;1992438;28;2725251;-84
2023/01/05 00:43:32;;;;;;;;;0.00;0.00;;;;;14.88;72.80;102276.13;2008405;28;2723198;-83
2023/01/05 00:44:46;;;;;;;;;0.00;0.00;;;;;14.88;72.80;102275.25;2007969;28;2724248;-83
2023/01/05 00:45:59;;;;;;;;;0.00;0.00;;;;;14.87;72.56;102273.50;2024364;28;2715903;-83
2023/01/05 00:47:12;;;;;;;;;0.00;0.00;;;;;14.87;72.50;102279.66;2022444;28;2722613;-83
2023/01/05 00:48:26;;;;;;;;;0.00;0.00;;;;;14.87;72.43;102269.06;1999275;28;2729980;-83
2023/01/05 00:49:39;;;;;;;;;0.00;0.00;;;;;14.85;72.45;102279.72;2021153;28;2727338;-83
2023/01/05 00:50:52;;;;;;;;;0.00;0.00;;;;;14.84;72.50;102280.59;1991413;28;2734107;-84
2023/01/05 00:52:06;;;;;;;;;1.00;0.00;;;;;14.83;72.58;102281.50;1989587;28;2725271;-83
2023/01/05 00:53:19;;;;;;;;;0.00;0.00;;;;;14.85;72.53;102281.44;1984348;28;2733595;-83
2023/01/05 00:54:33;;;;;;;;;1.00;0.00;;;;;14.84;72.75;102275.28;1997610;28;2727345;-83
2023/01/05 00:55:55;;;;;;;;;0.17;0.17;;;;;14.85;72.93;102278.81;1996163;28;2723218;-84
2023/01/05 00:57:12;;;;;;;;;0.00;0.00;;;;;14.85;72.92;102287.66;1985410;28;2725251;-83
2023/01/05 00:58:26;;;;;;;;;0.00;0.00;;;;;14.87;73.19;102284.97;2014178;28;2728403;-83
2023/01/05 00:59:39;;;;;;;;;0.00;0.00;;;;;14.87;72.53;102284.09;1984058;28;2731540;-83
2023/01/05 01:00:52;;;;;;;;;0.00;0.00;;;;;14.86;72.92;102288.53;2016240;28;2726339;-83
2023/01/05 01:02:06;;;;;;;;;0.00;0.00;;;;;14.87;73.14;102281.44;2019966;28;2727841;-84
2023/01/05 01:03:19;;;;;;;;;0.67;0.00;;;;;14.88;72.84;102284.06;1984105;28;2725275;-83
2023/01/05 01:04:33;;;;;;;;;0.00;0.00;;;;;14.88;73.10;102286.72;2013466;28;2733583;-83
2023/01/05 01:05:55;;;;;;;;;0.00;0.00;;;;;14.88;72.84;102288.47;1989786;28;2731592;-83
2023/01/05 01:07:09;;;;;;;;;0.67;0.67;;;;;14.88;72.88;102285.84;1985221;28;2729437;-83
2023/01/05 01:08:22;;;;;;;;;0.17;0.00;;;;;14.89;73.11;102287.59;2014344;28;2725282;-83
2023/01/05 01:09:36;;;;;;;;;0.00;0.00;;;;;14.89;72.96;102293.72;1983857;28;2733599;-83
2023/01/05 01:10:49;;;;;;;;;0.17;0.00;;;;;14.91;72.93;102285.75;1984011;28;2727853;-83
2023/01/05 01:12:02;;;;;;;;;0.00;0.00;;;;;14.90;72.96;102284.88;1983948;28;2723175;-83
2023/01/05 01:13:16;;;;;;;;;0.00;0.00;;;;;14.91;73.04;102280.47;1984274;28;2728415;-83
2023/01/05 01:14:29;;;;;;;;;0.00;0.00;;;;;14.92;72.99;102287.47;1984091;28;2717968;-83
2023/01/05 01:15:42;;;;;;;;;0.00;0.00;;;;;14.91;72.85;102278.69;1989611;28;2732553;-83
2023/01/05 01:16:55;;;;;;;;;0.00;0.00;;;;;14.91;72.83;102280.47;1991372;28;2730557;-83
2023/01/05 01:18:08;;;;;;;;;0.00;0.00;;;;;14.92;72.80;102274.25;2018813;28;2729819;-83
2023/01/05 01:19:25;;;;;;;;;0.00;0.00;;;;;14.92;72.90;102283.06;1996353;28;2724244;-84
2023/01/05 01:20:38;;;;;;;;;0.00;0.00;;;;;14.92;72.93;102276.88;1989142;28;2731540;-83
2023/01/05 01:21:51;;;;;;;;;0.00;0.00;;;;;14.91;72.63;102276.03;1990702;28;2724724;-83
2023/01/05 01:23:05;;;;;;;;;1.00;0.00;;;;;14.91;72.76;102278.69;1996684;28;2729425;-83
2023/01/05 01:24:21;;;;;;;;;0.00;0.00;;;;;14.91;72.56;102280.47;1996398;28;2715927;-83
2023/01/05 01:25:37;;;;;;;;;0.00;0.00;;;;;14.90;72.69;102279.59;2013394;28;2733600;-83
2023/01/05 01:26:51;;;;;;;;;0.00;0.00;;;;;14.90;72.78;102278.72;1990211;28;2729428;-83
2023/01/05 01:28:05;;;;;;;;;0.67;0.00;;;;;14.88;72.35;102278.78;1991202;28;2723179;-83
2023/01/05 01:29:20;;;;;;;;;0.00;0.00;;;;;14.87;72.46;102278.78;2012064;28;2728892;-83
2023/01/05 01:30:33;;;;;;;;;1.00;0.00;;;;;14.86;72.40;102285.88;1991219;28;2729450;-83
2023/01/05 01:31:48;;;;;;;;;0.00;0.00;;;;;14.84;72.24;102277.94;1991286;28;2725267;-83
2023/01/05 01:33:01;;;;;;;;;1.83;0.33;;;;;14.82;72.19;102282.41;1990245;28;2733696;-83
2023/01/05 01:34:15;;;;;;;;;0.83;0.00;;;;;14.81;71.91;102277.16;1991161;28;2728387;-83
2023/01/05 01:35:28;;;;;;;;;1.00;0.00;;;;;14.80;71.81;102276.28;2010299;28;2731551;-83
2023/01/05 01:36:42;;;;;;;;;0.00;0.00;;;;;14.79;72.04;102271.88;1990726;28;2727396;-83
2023/01/05 01:37:55;;;;;;;;;2.17;1.00;;;;;14.78;71.83;102269.28;1983970;28;2725406;-84
2023/01/05 01:39:09;;;;;;;;;3.33;0.00;;;;;14.75;71.17;102280.81;1990665;28;2731536;-83
2023/01/05 01:40:22;;;;;;;;;0.00;0.00;;;;;14.73;71.30;102277.34;1992252;28;2728407;-84
2023/01/05 01:41:36;;;;;;;;;1.33;0.00;;;;;14.70;71.44;102269.50;2011892;28;2733596;-83
2023/01/05 01:42:50;;;;;;;;;1.00;0.00;;;;;14.70;71.29;102280.94;2007900;28;2724233;-83
2023/01/05 01:44:42;;;;;;;;;3.00;0.67;;;;;14.69;71.59;102271.25;1989831;28;2733598;-83
2023/01/05 01:45:55;;;;;;;;;1.67;0.00;;;;;14.69;71.59;102275.72;1990108;28;2731512;-83
2023/01/05 01:47:15;;;;;;;;;0.50;0.50;;;;;14.68;71.89;102274.84;1997278;28;2723219;-83
2023/01/05 01:48:30;;;;;;;;;0.00;0.00;;;;;14.69;71.59;102283.66;1995935;28;2727393;-83
2023/01/05 01:49:43;;;;;;;;;0.50;0.50;;;;;14.69;71.33;102281.84;1983574;28;2722130;-83
2023/01/05 01:50:58;;;;;;;;;0.50;0.50;;;;;14.72;71.56;102280.91;1983536;28;2732578;-83
2023/01/05 01:52:11;;;;;;;;;0.67;0.17;;;;;14.72;71.49;102280.91;1984913;28;2721590;-83
2023/01/05 01:53:33;;;;;;;;;0.83;0.00;;;;;14.73;71.73;102293.22;1989565;28;2724228;-83
2023/01/05 01:54:46;;;;;;;;;0.00;0.00;;;;;14.74;71.55;102281.75;2006380;28;2725267;-83
2023/01/05 01:56:03;;;;;;;;;1.67;0.00;;;;;14.74;71.37;102279.09;2011825;28;2722150;-83
2023/01/05 01:57:17;;;;;;;;;0.00;0.00;;;;;14.74;71.47;102282.59;2020768;28;2733603;-83
2023/01/05 01:58:31;;;;;;;;;0.00;0.00;;;;;14.75;71.26;102286.13;1990729;28;2727346;-83
2023/01/05 01:59:44;;;;;;;;;0.00;0.00;;;;;14.76;71.47;102281.69;1990530;28;2729440;-83
2023/01/05 02:01:02;;;;;;;;;0.00;0.00;;;;;14.76;71.61;102292.28;2020099;28;2727372;-83
2023/01/05 02:02:15;;;;;;;;;0.33;0.00;;;;;14.75;71.51;102294.06;1996270;28;2730475;-83
2023/01/05 02:03:30;;;;;;;;;1.33;0.67;;;;;14.76;71.35;102290.53;1989223;28;2733627;-83
2023/01/05 02:04:44;;;;;;;;;2.00;0.00;;;;;14.76;71.59;102287.00;1990813;28;2730470;-83
2023/01/05 02:05:58;;;;;;;;;0.00;0.00;;;;;14.75;71.36;102288.78;2013560;28;2721104;-83
2023/01/05 02:07:14;;;;;;;;;0.00;0.00;;;;;14.74;71.81;102295.00;2010523;28;2733580;-83
2023/01/05 02:08:30;;;;;;;;;1.33;0.50;;;;;14.73;71.66;102285.28;1991243;28;2730494;-83
2023/01/05 02:09:43;;;;;;;;;0.50;0.00;;;;;14.74;71.64;102289.69;1991062;28;2725326;-83
2023/01/05 02:11:21;;;;;;;;;0.00;0.00;;;;;14.73;71.79;102287.94;2013028;28;2731524;-83
2023/01/05 02:13:07;;;;;;;;;1.00;0.00;;;;;14.73;71.70;102293.22;1991036;28;2722741;-83
2023/01/05 02:14:40;;;;;;;;;0.00;0.00;;;;;14.72;71.84;102294.13;1991608;28;2724252;-83
2023/01/05 02:16:12;;;;;;;;;0.33;0.00;;;;;14.72;71.82;102296.78;2012970;28;2729405;-83
2023/01/05 02:17:41;;;;;;;;;0.00;0.00;;;;;14.71;71.85;102297.72;1987069;28;2727369;-83
2023/01/05 02:19:03;;;;;;;;;1.00;0.00;;;;;14.70;71.87;102293.31;1997021;28;2727345;-83
2023/01/05 02:20:44;;;;;;;;;0.17;0.00;;;;;14.69;71.69;102303.00;1985138;28;2727366;-83
2023/01/05 02:22:27;;;;;;;;;1.00;0.00;;;;;14.70;71.91;102301.25;2006411;28;2731547;-83
2023/01/05 02:23:52;;;;;;;;;0.00;0.00;;;;;14.68;71.99;102295.13;1991467;28;2720054;-83
2023/01/05 02:25:22;;;;;;;;;1.00;0.00;;;;;14.68;72.03;102300.41;2011493;28;2729505;-84
2023/01/05 02:27:10;;;;;;;;;0.50;0.00;;;;;14.68;71.94;102300.41;1984070;28;2720078;-83
2023/01/05 02:28:35;;;;;;;;;0.00;0.00;;;;;14.68;72.23;102295.13;1976191;28;2731531;-83
2023/01/05 02:30:08;;;;;;;;;0.67;0.00;;;;;14.67;71.97;102296.91;1990786;28;2727382;-83
2023/01/05 02:31:35;;;;;;;;;0.00;0.00;;;;;14.68;72.00;102303.06;1991159;28;2727362;-83
2023/01/05 02:32:55;;;;;;;;;0.00;0.00;;;;;14.69;71.94;102299.53;1996370;28;2727406;-83
2023/01/05 02:34:16;;;;;;;;;0.00;0.00;;;;;14.67;72.16;102299.53;2018922;28;2731548;-83
2023/01/05 02:35:40;;;;;;;;;0.00;0.00;;;;;14.68;71.77;102301.28;1990940;28;2721674;-83
2023/01/05 02:37:09;;;;;;;;;0.00;0.00;;;;;14.69;71.86;102302.16;2013292;28;2733599;-83
2023/01/05 02:38:38;;;;;;;;;2.33;0.00;;;;;14.67;71.54;102304.00;1990700;28;2735707;-83
2023/01/05 02:39:58;;;;;;;;;0.00;0.00;;;;;14.68;71.66;102305.72;1983644;28;2725255;-83
2023/01/05 02:41:35;;;;;;;;;1.33;0.00;;;;;14.67;71.75;102304.84;1990173;28;2727366;-84
2023/01/05 02:42:52;;;;;;;;;1.00;0.00;;;;;14.67;71.63;102309.28;1993872;28;2727353;-83
2023/01/05 02:44:09;;;;;;;;;0.00;0.00;;;;;14.66;71.80;102303.13;1984853;28;2723183;-83
2023/01/05 02:45:23;;;;;;;;;0.67;0.00;;;;;14.66;71.39;102302.25;2007997;28;2724221;-83
2023/01/05 02:46:36;;;;;;;;;0.00;0.00;;;;;14.63;71.10;102312.00;2020673;28;2727373;-83
2023/01/05 02:47:50;;;;;;;;;2.67;0.00;;;;;14.62;71.13;102310.25;1990488;28;2732653;-83
2023/01/05 02:49:05;;;;;;;;;0.00;0.00;;;;;14.60;70.62;102312.06;1996419;28;2724236;-83
2023/01/05 02:50:26;;;;;;;;;0.00;0.00;;;;;14.60;70.49;102305.91;1990713;28;2730506;-83
2023/01/05 02:51:45;;;;;;;;;1.17;0.00;;;;;14.58;70.45;102310.38;2012230;28;2729870;-83
2023/01/05 02:53:06;;;;;;;;;1.00;0.33;;;;;14.57;70.16;102312.13;1989975;28;2731875;-84
2023/01/05 02:54:49;;;;;;;;;0.83;0.00;;;;;14.55;70.20;102303.38;1983017;28;2733624;-83
2023/01/05 02:56:06;;;;;;;;;1.50;0.00;;;;;14.54;69.54;102304.28;1982083;28;2727346;-83
2023/01/05 02:57:45;;;;;;;;;2.17;0.67;;;;;14.51;68.99;102309.66;1988866;28;2733624;-83
2023/01/05 02:59:18;;;;;;;;;0.50;0.50;;;;;14.45;68.69;102305.38;1989475;28;2733607;-83
2023/01/05 03:00:40;;;;;;;;;0.33;0.00;;;;;14.43;68.96;102306.31;1988349;28;2727350;-83
2023/01/05 03:02:22;;;;;;;;;2.00;0.00;;;;;14.42;68.81;102299.31;1991145;28;2724677;-84
2023/01/05 03:04:08;;;;;;;;;2.67;0.83;;;;;14.38;68.59;102304.66;2012795;28;2731537;-83
2023/01/05 03:05:31;;;;;;;;;2.17;1.00;;;;;14.37;68.78;102302.91;1981106;28;2735714;-83
2023/01/05 03:06:55;;;;;;;;;0.17;0.00;;;;;14.36;68.52;102301.19;1978209;28;2737777;-83
2023/01/05 03:08:20;;;;;;;;;1.00;0.67;;;;;14.36;68.98;102297.66;1982216;28;2735698;-82
2023/01/05 03:09:38;;;;;;;;;1.33;0.00;;;;;14.35;68.74;102299.44;1989746;28;2727418;-83
2023/01/05 03:14:27;;;;;;;;;0.00;0.00;;;;;14.37;69.12;102300.25;1990545;28;2725258;-82
2023/01/05 03:15:42;;;;;;;;;1.67;0.67;;;;;14.39;68.84;102306.41;1990335;28;2729472;-83
2023/01/05 03:16:59;;;;;;;;;0.00;0.00;;;;;14.40;69.26;102305.50;1978837;28;2733584;-83
2023/01/05 03:18:18;;;;;;;;;0.00;0.00;;;;;14.43;69.37;102301.03;2010526;28;2735686;-83
2023/01/05 03:19:35;;;;;;;;;1.67;0.00;;;;;14.45;69.22;102302.72;1997718;28;2726291;-83
2023/01/05 03:20:52;;;;;;;;;1.00;0.50;;;;;14.47;69.12;102308.84;1988922;28;2725298;-83
2023/01/05 03:35:32;;;;;;;;;0.17;0.00;;;;;14.59;69.12;102307.66;1989882;28;2732578;-83
2023/01/05 03:36:54;;;;;;;;;0.67;0.67;;;;;14.60;69.01;102305.91;1990666;28;2728422;-83
2023/01/05 03:38:30;;;;;;;;;0.00;0.00;;;;;14.60;68.84;102309.41;2010722;28;2730233;-83
2023/01/05 03:39:46;;;;;;;;;1.00;0.00;;;;;14.60;69.04;102306.78;1990209;28;2733655;-83
2023/01/05 03:41:03;;;;;;;;;1.67;0.00;;;;;14.60;69.08;102304.13;2013512;28;2726308;-83
2023/01/05 03:42:17;;;;;;;;;0.00;0.00;;;;;14.60;68.72;102305.91;1984112;28;2729444;-83
2023/01/05 03:43:35;;;;;;;;;0.00;0.00;;;;;14.60;68.78;102312.06;1986051;28;2725670;-83
2023/01/05 03:44:49;;;;;;;;;0.00;0.00;;;;;14.60;68.98;102305.91;1987849;28;2733612;-83
2023/01/05 03:46:10;;;;;;;;;2.00;0.50;;;;;14.61;68.64;102305.00;1990483;28;2731520;-84
2023/01/05 03:47:23;;;;;;;;;0.00;0.00;;;;;14.61;69.05;102303.25;1988948;28;2731635;-83
2023/01/05 03:48:36;;;;;;;;;2.83;0.00;;;;;14.62;68.76;102307.59;1981928;28;2737762;-83
2023/01/05 03:49:50;;;;;;;;;0.83;0.00;;;;;14.63;68.93;102298.78;1983275;28;2733684;-82
2023/01/05 03:51:04;;;;;;;;;1.67;0.00;;;;;14.64;68.83;102312.88;2012555;28;2733604;-83
2023/01/05 03:52:17;;;;;;;;;1.83;0.17;;;;;14.63;68.83;102314.66;1997681;28;2724253;-82
2023/01/05 03:53:30;;;;;;;;;0.83;0.00;;;;;14.62;68.66;102310.25;1995371;28;2729449;-83
2023/01/05 03:54:43;;;;;;;;;0.00;0.00;;;;;14.62;68.93;102312.91;2012397;28;2733985;-83
2023/01/05 03:55:57;;;;;;;;;1.67;0.00;;;;;14.62;68.77;102318.19;1986858;28;2724220;-83
2023/01/05 03:57:10;;;;;;;;;2.33;0.00;;;;;14.61;68.91;102324.41;1990188;28;2729456;-84
2023/01/05 03:58:23;;;;;;;;;0.83;0.00;;;;;14.62;68.95;102323.47;2012288;28;2729429;-84
2023/01/05 03:59:37;;;;;;;;;1.67;1.00;;;;;14.63;68.71;102319.94;1986292;28;2734645;-83
2023/01/05 04:00:50;;;;;;;;;1.67;0.00;;;;;14.63;68.73;102319.06;2010985;28;2733618;-83
2023/01/05 04:02:03;;;;;;;;;0.00;0.00;;;;;14.65;68.91;102319.88;1982128;28;2728404;-83
2023/01/05 04:03:16;;;;;;;;;0.50;0.50;;;;;14.67;68.79;102325.16;2010822;28;2733603;-83
2023/01/05 04:04:29;;;;;;;;;2.67;0.00;;;;;14.68;68.83;102321.59;1989432;28;2731544;-83
2023/01/05 04:05:43;;;;;;;;;0.00;0.00;;;;;14.68;68.75;102318.94;1996540;28;2733583;-83
2023/01/05 04:06:56;;;;;;;;;0.67;0.00;;;;;14.67;68.64;102325.16;1989420;28;2733611;-83
2023/01/05 04:08:09;;;;;;;;;2.00;0.00;;;;;14.66;68.54;102324.28;2011231;28;2730491;-83
2023/01/05 04:09:22;;;;;;;;;0.00;0.00;;;;;14.65;68.45;102325.19;1990789;28;2725274;-83
2023/01/05 04:10:35;;;;;;;;;2.00;0.00;;;;;14.66;68.79;102326.94;2012180;28;2721079;-83
2023/01/05 04:11:49;;;;;;;;;2.17;0.00;;;;;14.66;68.86;102324.28;2020547;28;2730511;-83
2023/01/05 04:13:02;;;;;;;;;2.33;1.00;;;;;14.66;68.86;102324.28;1989195;28;2728379;-82
2023/01/05 04:14:15;;;;;;;;;1.67;0.00;;;;;14.69;69.04;102332.13;1983271;28;2731531;-84
2023/01/05 04:15:28;;;;;;;;;1.67;0.00;;;;;14.69;68.89;102320.69;1982154;28;2727420;-83
2023/01/05 04:16:41;;;;;;;;;0.67;0.67;;;;;14.70;69.21;102325.06;1989682;28;2738827;-83
2023/01/05 04:17:55;;;;;;;;;0.00;0.00;;;;;14.71;69.06;102329.47;1987745;28;2735670;-83
2023/01/05 04:19:09;;;;;;;;;0.00;0.00;;;;;14.71;69.04;102330.34;1990425;28;2724256;-83
2023/01/05 04:20:22;;;;;;;;;1.00;0.00;;;;;14.72;69.17;102316.19;2016699;28;2733591;-83
2023/01/05 04:21:35;;;;;;;;;0.67;0.67;;;;;14.73;69.13;102317.06;1996453;28;2729437;-83
2023/01/05 04:22:48;;;;;;;;;1.33;0.83;;;;;14.75;69.13;102315.22;1996787;28;2729489;-83
2023/01/05 04:24:02;;;;;;;;;0.50;0.00;;;;;14.75;68.95;102315.22;1988718;28;2731684;-83
2023/01/05 04:25:15;;;;;;;;;1.50;0.00;;;;;14.74;68.94;102310.88;1983015;28;2731544;-83
2023/01/05 04:26:28;;;;;;;;;0.00;0.00;;;;;14.75;69.05;102312.59;1989655;28;2725307;-83
2023/01/05 04:27:41;;;;;;;;;2.67;1.00;;;;;14.75;69.10;102317.88;1990338;28;2735722;-83
2023/01/05 04:28:54;;;;;;;;;0.00;0.00;;;;;14.74;69.09;102318.81;1991078;28;2723203;-83
2023/01/05 04:30:09;;;;;;;;;1.00;0.83;;;;;14.74;68.94;102306.41;1990790;28;2728379;-83
2023/01/05 04:31:22;;;;;;;;;0.50;0.00;;;;;14.74;68.72;102313.50;1991699;28;2722146;-83
2023/01/05 04:32:35;;;;;;;;;3.83;0.00;;;;;14.73;68.78;102315.28;1990622;28;2731520;-83
2023/01/05 04:33:48;;;;;;;;;1.00;1.00;;;;;14.72;68.90;102317.94;1990801;28;2735715;-83
2023/01/05 04:35:01;;;;;;;;;0.50;0.00;;;;;14.71;68.62;102318.88;1991047;28;2730490;-84
2023/01/05 04:36:15;;;;;;;;;0.00;0.00;;;;;14.68;68.75;102318.94;2013643;28;2716942;-83
2023/01/05 04:37:28;;;;;;;;;0.00;0.00;;;;;14.68;68.43;102317.19;2014100;28;2720111;-83
2023/01/05 04:38:41;;;;;;;;;2.50;0.00;;;;;14.67;68.52;102317.22;1991377;28;2726356;-83
2023/01/05 04:39:54;;;;;;;;;0.33;0.33;;;;;14.65;68.69;102301.38;2007861;28;2729580;-83
2023/01/05 04:41:07;;;;;;;;;0.00;0.00;;;;;14.64;68.71;102315.53;1991521;28;2733599;-83
2023/01/05 04:42:21;;;;;;;;;0.00;0.00;;;;;14.65;68.75;102317.25;2008903;28;2731535;-83
2023/01/05 04:43:34;;;;;;;;;1.33;0.33;;;;;14.66;68.69;102315.47;1987968;28;2721104;-83
2023/01/05 04:44:47;;;;;;;;;0.00;0.00;;;;;14.66;68.62;102313.69;1990964;28;2731863;-84
2023/01/05 04:46:00;;;;;;;;;0.00;0.00;;;;;14.67;68.66;102314.56;1991553;28;2725285;-83
2023/01/05 04:47:13;;;;;;;;;0.00;0.00;;;;;14.66;68.85;102326.94;1991227;28;2725255;-83
2023/01/05 04:48:27;;;;;;;;;0.50;0.00;;;;;14.67;68.85;102322.50;1993883;28;2729799;-83
2023/01/05 04:49:40;;;;;;;;;0.00;0.00;;;;;14.67;68.55;102319.88;1998559;28;2727362;-83
2023/01/05 04:50:54;;;;;;;;;3.67;1.00;;;;;14.65;68.77;102321.66;1998077;28;2725275;-83
2023/01/05 04:52:08;;;;;;;;;0.00;0.00;;;;;14.65;68.70;102326.94;1998297;28;2725258;-83
2023/01/05 04:53:22;;;;;;;;;1.00;0.00;;;;;14.65;68.75;102326.94;1995458;28;2733663;-83
2023/01/05 04:54:35;;;;;;;;;0.00;0.00;;;;;14.66;68.94;102323.41;1990723;28;2733592;-83
2023/01/05 04:55:50;;;;;;;;;0.83;0.00;;;;;14.66;68.59;102324.28;1991003;28;2729446;-83
2023/01/05 04:57:04;;;;;;;;;0.00;0.00;;;;;14.69;68.72;102318.91;2014205;28;2722126;-83
2023/01/05 04:58:17;;;;;;;;;0.00;0.00;;;;;14.69;68.87;102318.06;2012896;28;2725270;-83
2023/01/05 04:59:31;;;;;;;;;0.00;0.00;;;;;14.71;68.90;102318.88;1991761;28;2725278;-83
2023/01/05 05:00:44;;;;;;;;;0.67;0.00;;;;;14.71;68.51;102326.81;1988455;28;2722141;-83
2023/01/05 05:01:57;;;;;;;;;0.00;0.00;;;;;14.71;68.68;102318.88;1991647;28;2721103;-83
2023/01/05 05:03:10;;;;;;;;;0.00;0.00;;;;;14.71;68.62;102318.88;1985992;28;2714862;-84
2023/01/05 05:04:23;;;;;;;;;2.33;0.00;;;;;14.70;68.60;102320.66;2014529;28;2729439;-83
2023/01/05 05:05:37;;;;;;;;;0.00;0.00;;;;;14.71;68.68;102321.53;1997810;28;2733603;-83
2023/01/05 05:06:50;;;;;;;;;1.00;0.00;;;;;14.71;68.57;102308.28;1991306;28;2725281;-83
2023/01/05 05:08:03;;;;;;;;;0.00;0.00;;;;;14.73;68.85;102319.69;1991687;28;2725727;-83
2023/01/05 05:09:16;;;;;;;;;0.00;0.00;;;;;14.73;68.72;102314.41;1990721;28;2731513;-83
2023/01/05 05:10:30;;;;;;;;;0.00;0.00;;;;;14.73;68.71;102307.34;2009369;28;2725298;-83
2023/01/05 05:11:43;;;;;;;;;2.00;0.00;;;;;14.74;68.70;102311.72;2013161;28;2727342;-83
2023/01/05 05:12:56;;;;;;;;;0.00;0.00;;;;;14.75;68.58;102312.59;1982955;28;2725267;-83
2023/01/05 05:14:09;;;;;;;;;0.00;0.00;;;;;14.74;68.98;102306.41;1990522;28;2722150;-83
2023/01/05 05:15:23;;;;;;;;;0.00;0.00;;;;;14.74;68.53;102309.06;1991285;28;2725275;-83
2023/01/05 05:16:36;;;;;;;;;0.00;0.00;;;;;14.74;68.84;102311.72;1991783;28;2721124;-83
2023/01/05 05:17:49;;;;;;;;;1.00;0.00;;;;;14.74;68.91;102302.94;2014505;28;2727390;-83
2023/01/05 05:19:02;;;;;;;;;0.00;0.00;;;;;14.74;68.42;102305.56;2013420;28;2727377;-83
2023/01/05 05:20:16;;;;;;;;;0.17;0.00;;;;;14.74;68.43;102306.41;1989194;28;2731623;-83
2023/01/05 05:21:29;;;;;;;;;1.83;0.83;;;;;14.73;68.44;102310.00;1991487;28;2722222;-83
2023/01/05 05:22:42;;;;;;;;;0.00;0.00;;;;;14.72;68.47;102302.94;1990892;28;2725816;-83
2023/01/05 05:23:55;;;;;;;;;0.00;0.00;;;;;14.73;68.48;102303.81;2020100;28;2725258;-83
2023/01/05 05:25:08;;;;;;;;;1.00;0.00;;;;;14.73;68.75;102302.06;2019597;28;2727361;-83
2023/01/05 05:26:22;;;;;;;;;0.67;0.00;;;;;14.73;68.56;102312.63;2012300;28;2733634;-83
2023/01/05 05:27:35;;;;;;;;;0.00;0.00;;;;;14.73;68.95;102303.81;1983895;28;2725302;-83
2023/01/05 05:28:48;;;;;;;;;0.67;0.00;;;;;14.73;68.48;102314.41;1991904;28;2725273;-83
2023/01/05 05:30:02;;;;;;;;;2.83;0.00;;;;;14.73;68.69;102314.41;2013913;28;2727428;-83
2023/01/05 05:31:15;;;;;;;;;0.00;0.00;;;;;14.73;68.53;102306.47;1988509;28;2725259;-83
2023/01/05 05:32:29;;;;;;;;;1.00;0.00;;;;;14.73;68.69;102312.63;1989360;28;2737775;-83
2023/01/05 05:33:42;;;;;;;;;0.00;0.00;;;;;14.73;68.86;102312.63;1988387;28;2725279;-83
2023/01/05 05:34:55;;;;;;;;;0.83;0.00;;;;;14.74;68.74;102316.16;2013899;28;2734076;-83
2023/01/05 05:36:08;;;;;;;;;0.00;0.00;;;;;14.73;68.73;102306.47;1989638;28;2727346;-83
2023/01/05 05:37:22;;;;;;;;;1.00;0.00;;;;;14.73;68.76;102312.63;2012362;28;2720151;-83
2023/01/05 05:38:35;;;;;;;;;0.67;0.00;;;;;14.72;68.64;102313.53;2011447;28;2729409;-83
2023/01/05 05:39:48;;;;;;;;;0.00;0.00;;;;;14.72;68.72;102310.00;1991297;28;2730497;-83
2023/01/05 05:41:01;;;;;;;;;0.00;0.00;;;;;14.73;68.94;102314.41;1990025;28;2691946;-83
2023/01/05 05:42:14;;;;;;;;;0.00;0.00;;;;;14.72;68.53;102307.38;2011949;28;2725302;-83
2023/01/05 05:43:28;;;;;;;;;1.67;0.00;;;;;14.72;68.68;102315.31;1989710;28;2725385;-83
2023/01/05 05:44:41;;;;;;;;;0.67;0.67;;;;;14.72;68.95;102312.66;2012994;28;2727401;-83
2023/01/05 05:45:54;;;;;;;;;0.00;0.00;;;;;14.72;68.65;102312.66;2017936;28;2729448;-83
2023/01/05 05:47:07;;;;;;;;;1.50;0.00;;;;;14.71;68.51;102308.28;1991095;28;2727354;-83
2023/01/05 05:48:20;;;;;;;;;1.00;0.00;;;;;14.70;68.97;102318.00;2007208;28;2731540;-84
2023/01/05 05:49:33;;;;;;;;;0.33;0.33;;;;;14.69;68.98;102312.75;1990453;28;2731520;-83
2023/01/05 05:50:47;;;;;;;;;0.00;0.00;;;;;14.69;68.78;102315.41;2013580;28;2724309;-83
2023/01/05 05:52:00;;;;;;;;;0.00;0.00;;;;;14.68;68.47;102314.53;2013726;28;2728406;-83
2023/01/05 05:53:13;;;;;;;;;1.67;0.00;;;;;14.67;68.85;102304.84;1989598;28;2725262;-83
2023/01/05 05:54:26;;;;;;;;;0.00;0.00;;;;;14.66;68.88;102316.34;2013620;28;2724281;-83
2023/01/05 05:55:39;;;;;;;;;0.00;0.00;;;;;14.65;69.07;102314.59;2013068;28;2706590;-83
2023/01/05 05:56:53;;;;;;;;;0.00;0.00;;;;;14.65;68.98;102321.66;2013972;28;2721136;-85
2023/01/05 05:58:06;;;;;;;;;0.67;0.00;;;;;14.63;69.08;102324.34;2013448;28;2725297;-86
2023/01/05 05:59:19;;;;;;;;;0.00;0.00;;;;;14.62;69.03;102326.13;1998179;28;2722145;-83
2023/01/05 06:00:32;;;;;;;;;1.50;0.00;;;;;14.61;69.09;102329.69;2019507;28;2730526;-83
2023/01/05 06:01:46;;;;;;;;;0.00;0.00;;;;;14.60;69.44;102327.94;2013213;28;2728392;-83
2023/01/05 06:02:59;;;;;;;;;0.83;0.00;;;;;14.60;69.30;102327.94;1987177;28;2725263;-83
2023/01/05 06:04:12;;;;;;;;;0.00;0.00;;;;;14.60;68.95;102329.72;1983170;28;2722165;-83
2023/01/05 06:05:25;;;;;;;;;1.00;0.00;;;;;14.59;69.58;102335.94;2013525;28;2724225;-83
2023/01/05 06:06:39;;;;;;;;;2.67;0.00;;;;;14.58;69.33;102336.81;2005165;28;2727354;-83
2023/01/05 06:07:52;;;;;;;;;0.67;0.00;;;;;14.58;69.34;102327.13;2005278;28;2729861;-83
2023/01/05 06:09:05;;;;;;;;;0.00;0.00;;;;;14.59;69.43;102328.00;2011787;28;2725371;-83
2023/01/05 06:10:18;;;;;;;;;0.00;0.00;;;;;14.57;69.71;102338.59;2013369;28;2733599;-83
2023/01/05 06:11:32;;;;;;;;;0.00;0.00;;;;;14.58;69.74;102336.81;1990721;28;2733635;-83
2023/01/05 06:12:45;;;;;;;;;2.00;0.00;;;;;14.57;69.32;102337.75;1990473;28;2729432;-83
2023/01/05 06:13:58;;;;;;;;;1.83;0.00;;;;;14.56;69.47;102334.22;2020973;28;2723194;-83